Date,TemperatureHighF,TemperatureAvgF,TemperatureLowF,DewpointHighF,DewpointAvgF,DewpointLowF,HumidityHigh,HumidityAvg,HumidityLow,PressureMaxIn,PressureMinIn,WindSpeedMaxMPH,WindSpeedAvgMPH,GustSpeedMaxMPH,PrecipitationSumIn
2012-6-24,106,88,80,54,49,41,40,29,11,29.33,29.27,6,2,7,0.00
2012-6-25,110,92,71,65,53,41,70,33,11,29.36,29.18,11,2,13,0.00
2012-6-26,111,93,75,67,57,46,60,34,13,29.24,29.12,12,4,15,0.00
2012-6-27,108,90,74,67,51,25,74,34,6,29.36,29.18,12,5,20,0.00
2012-6-28,103,89,75,62,51,34,62,32,10,29.47,29.36,19,6,24,0.00
2012-6-29,102,88,75,68,57,43,77,39,15,29.42,29.24,14,6,19,0.00
2012-6-30,102,87,72,68,60,40,79,46,13,29.33,29.18,18,6,23,0.00
2012-7-1,95,81,73,74,64,55,88,60,28,29.44,29.30,19,6,23,0.00
2012-7-2,97,83,75,70,65,56,79,57,28,29.53,29.36,15,7,20,0.00
2012-7-3,100,85,76,68,58,44,74,46,16,29.50,29.30,14,7,19,0.00
2012-7-4,100,86,74,70,59,44,89,47,17,29.44,29.30,17,7,21,0.00
2012-7-5,102,86,74,68,57,45,81,42,16,29.47,29.30,14,6,20,0.00
2012-7-6,105,89,73,66,55,44,70,37,15,29.47,29.36,14,4,15,0.00
2012-7-7,110,84,72,71,62,46,92,57,13,29.47,29.33,25,3,28,0.00
2012-7-8,106,81,71,76,69,52,98,73,24,29.47,29.30,15,3,20,0.00
2012-7-9,106,84,70,74,67,49,98,67,17,29.42,29.24,17,4,24,0.00
2012-7-10,98,80,70,75,67,57,98,70,30,29.42,29.24,8,3,11,0.00
2012-7-11,97,82,71,70,65,55,95,61,28,29.39,29.27,14,4,20,0.00
2012-7-12,100,82,70,73,65,54,96,63,25,29.39,29.30,11,3,15,0.00
2012-7-13,97,82,72,77,66,57,98,64,28,29.47,29.36,11,4,14,0.00
2012-7-14,100,82,70,74,64,55,96,62,24,29.47,29.36,19,3,28,0.00
2012-7-15,101,78,69,70,66,56,97,70,27,29.47,29.36,12,4,15,0.00
2012-7-16,95,82,69,73,65,57,98,62,31,29.47,29.33,15,6,17,0.00
2012-7-17,98,85,73,71,63,50,91,53,21,29.44,29.30,15,7,18,0.00
2012-7-18,102,87,74,72,63,51,91,51,21,29.47,29.30,12,6,14,0.00
2012-7-19,106,90,74,71,59,46,81,42,14,29.53,29.36,11,4,13,0.00
2012-7-20,113,90,75,68,58,33,73,40,7,29.50,29.33,12,4,18,0.00
2012-7-21,116,93,75,65,54,33,68,34,7,29.42,29.24,14,4,19,0.00
2012-7-22,104,88,75,71,60,47,84,44,16,29.47,29.33,16,7,22,0.00
2012-7-23,101,87,75,69,60,44,76,45,19,29.53,29.44,14,8,18,0.00
2012-7-24,100,86,74,70,62,49,86,49,21,29.50,29.33,16,8,23,0.00
2012-7-25,101,88,77,71,61,46,81,45,16,29.42,29.24,17,10,23,0.00
2012-7-26,102,88,77,69,61,51,76,43,20,29.36,29.21,16,8,25,0.00
2012-7-27,100,87,77,69,60,45,72,44,17,29.47,29.33,14,6,18,0.00
2012-7-28,111,91,75,68,55,33,74,37,8,29.53,29.36,11,4,17,0.00
2012-7-29,113,93,73,59,46,24,57,26,5,29.53,29.33,12,4,15,0.00
2012-7-30,110,92,77,62,51,33,58,29,8,29.47,29.30,12,4,15,0.00
2012-7-31,112,91,75,65,53,34,69,34,8,29.42,29.27,13,5,18,0.00
2012-8-1,109,92,78,66,53,34,65,31,9,29.42,29.21,14,7,19,0.00
2012-8-2,106,91,77,60,50,34,52,28,9,29.33,29.18,17,8,20,0.00
2012-8-3,104,90,75,63,54,39,64,34,12,29.33,29.18,16,9,21,0.00
2012-8-4,103,90,77,67,57,46,68,36,15,29.42,29.24,16,8,20,0.00
2012-8-5,110,92,77,67,57,34,67,35,8,29.56,29.36,16,4,20,0.00
2012-8-6,108,91,78,64,56,40,62,35,13,29.50,29.21,12,4,13,0.00
2012-8-7,114,90,77,72,56,33,77,39,7,29.42,29.24,17,3,19,0.00
2012-8-8,107,87,78,67,59,39,66,42,12,29.44,29.30,14,5,17,0.00
2012-8-9,112,90,72,69,55,33,85,40,7,29.44,29.18,11,5,13,0.00
2012-8-10,103,88,74,65,48,25,67,30,8,29.36,29.21,13,6,16,0.00
2012-8-11,107,86,67,50,38,24,45,23,6,29.42,29.27,8,4,9,0.00
2012-8-12,105,88,72,62,53,45,62,34,15,29.39,29.24,16,8,19,0.00
2012-8-13,106,92,79,62,43,26,54,24,6,29.42,29.21,11,6,11,0.00
2012-8-14,107,86,74,56,43,34,33,24,9,29.39,29.21,5,3,6,0.00
2012-8-15,105,105,105,35,35,35,9,9,9,29.24,29.21,4,4,4,0.00
2012-8-16,105,85,79,59,56,35,49,38,9,29.39,29.24,6,4,8,0.00
2012-8-17,107,86,72,71,62,48,94,50,16,29.44,29.24,33,6,43,0.00
2012-8-18,93,74,68,71,65,58,98,76,35,29.42,29.18,18,7,22,0.00
2012-8-19,98,80,65,72,59,45,98,56,19,29.42,29.24,5,2,6,0.00
2012-8-20,96,82,68,67,48,31,97,34,11,29.44,29.30,7,4,8,0.00
2012-8-21,89,73,66,67,58,50,97,62,29,29.50,29.36,8,2,8,0.00
2012-8-22,96,78,62,68,52,31,98,53,11,29.56,29.42,12,4,16,0.00
2012-8-23,98,80,66,65,54,43,77,45,16,29.50,29.36,12,4,14,0.00
2012-8-24,99,82,69,71,62,50,97,55,21,29.39,29.21,15,5,17,0.00
2012-8-25,97,84,77,70,63,49,80,54,22,29.36,29.24,17,10,23,0.00
2012-8-26,97,81,74,71,66,57,89,65,31,29.50,29.36,12,5,17,0.00
2012-8-27,102,84,72,79,66,55,98,62,22,29.50,29.30,9,3,11,0.00
2012-8-28,100,83,73,72,64,54,89,56,26,29.42,29.27,13,6,13,0.00
2012-8-29,99,83,70,57,51,45,57,35,18,29.33,29.15,13,7,13,0.00
2012-8-30,99,85,74,60,53,46,56,36,18,29.24,29.06,14,8,18,0.00
2012-8-31,107,86,76,69,57,44,72,42,14,29.39,29.15,4,1,4,0.00
2012-9-1,102,88,76,70,61,48,80,45,18,29.47,29.36,5,4,7,0.00
2012-9-2,105,88,74,68,57,45,79,41,15,29.47,29.30,13,6,17,0.00
2012-9-3,104,88,76,66,56,44,69,37,14,29.44,29.27,12,6,19,0.00
2012-9-4,107,89,76,68,58,40,72,41,12,29.39,29.21,13,6,15,0.00
2012-9-5,107,100,96,58,49,41,27,18,14,29.33,29.18,9,6,11,0.00
2012-9-6,109,100,90,49,40,33,25,14,8,29.30,29.21,11,5,13,0.00
2012-9-15,90,70,68,55,54,49,62,59,25,29.56,29.21,5,3,6,0.00
2012-9-16,74,68,65,66,60,54,98,77,61,29.53,29.39,5,2,6,0.00
2012-9-17,90,74,67,69,62,53,98,72,34,29.42,29.18,9,2,11,0.00
2012-9-18,88,72,60,65,49,23,98,55,11,29.50,29.33,13,5,17,0.00
2012-9-19,95,71,52,54,37,23,67,36,9,29.59,29.42,9,4,11,0.00
2012-9-20,81,63,58,51,48,45,71,58,30,29.53,29.44,11,4,13,0.00
2012-9-21,102,87,72,51,39,25,43,22,7,29.50,29.30,10,5,13,0.00
2012-9-22,103,81,60,52,41,24,67,32,7,29.53,29.39,7,3,10,0.00
2012-9-23,103,83,62,58,46,26,77,36,8,29.62,29.47,11,3,17,0.00
2012-9-24,99,90,77,53,38,26,42,19,8,29.50,29.36,17,9,19,0.00
2012-9-25,96,82,71,68,55,31,86,47,11,29.47,29.30,25,12,30,0.00
2012-9-26,97,87,78,55,48,40,46,28,16,29.47,29.36,15,7,16,0.00
2012-9-27,98,81,71,67,56,42,83,48,18,29.53,29.42,11,5,16,0.00
2012-9-28,102,78,67,63,58,45,85,55,17,29.50,29.36,12,4,15,0.00
2012-9-29,72,69,67,70,66,60,98,90,65,29.42,29.18,17,6,20,0.00
2012-9-30,74,66,59,66,57,41,98,77,35,29.30,29.18,17,8,21,0.00
2012-10-1,87,71,58,58,45,28,95,48,13,29.27,29.18,16,7,20,0.00
2012-10-2,84,70,64,53,46,37,67,45,20,29.39,29.24,10,5,13,0.00
2012-10-3,87,75,58,55,44,28,82,38,14,29.44,29.36,15,6,20,0.00
2012-10-4,89,75,62,61,54,48,92,52,29,29.56,29.44,15,7,20,0.00
2012-10-5,92,78,67,69,59,47,89,56,28,29.53,29.36,15,7,19,0.00
2012-10-6,59,54,48,47,39,33,80,59,41,29.68,29.53,13,8,20,0.00
2012-10-7,54,50,48,35,31,25,60,47,33,29.74,29.59,11,5,15,0.00
2012-10-8,73,56,38,41,33,28,80,47,22,29.71,29.47,9,3,12,0.00
2012-10-9,79,62,49,61,50,41,87,66,41,29.53,29.30,19,8,24,0.00
2012-10-10,75,67,61,72,62,57,98,84,59,29.56,29.39,10,4,11,0.00
2012-10-11,88,73,64,70,66,59,98,80,44,29.59,29.47,20,6,23,0.00
2012-10-12,87,75,68,71,65,57,98,76,37,29.62,29.50,14,6,17,0.00
2012-10-13,85,75,69,70,65,58,93,72,43,29.53,29.24,24,12,33,0.00
2012-10-14,85,71,62,68,57,41,98,68,22,29.50,29.33,18,5,24,0.00
2012-10-15,95,70,51,55,42,23,85,47,9,29.56,29.39,6,2,8,0.00
2012-10-16,76,64,56,62,51,43,92,65,38,29.44,29.12,21,8,25,0.03
2012-10-17,93,73,63,65,53,31,98,58,12,29.21,28.94,21,10,28,0.00
2012-10-18,85,65,49,41,26,13,51,27,8,29.47,29.18,10,4,13,0.00
2012-10-19,85,63,47,36,25,12,59,29,8,29.47,29.30,13,4,17,0.00
2012-10-20,87,69,50,63,48,28,69,48,33,29.36,29.15,25,9,29,0.00
2012-10-21,89,79,73,68,64,58,82,63,37,29.36,29.18,24,12,28,0.00
2012-10-22,90,77,70,70,64,55,96,69,34,29.44,29.30,17,10,24,0.00
2012-10-23,85,72,68,68,63,41,98,74,22,29.44,29.30,17,9,23,0.00
2012-10-24,69,69,68,61,60,59,78,73,71,29.39,29.36,9,6,11,0.00
2012-10-25,77,56,54,64,48,36,83,73,52,29.50,29.39,16,10,24,0.00
2012-10-26,55,51,48,42,35,28,82,55,37,29.71,29.47,18,10,22,0.00
2012-10-28,77,56,43,64,15,8,66,22,12,29.71,29.39,11,4,13,0.00
2012-10-29,78,54,35,30,20,9,57,32,10,29.77,29.53,9,2,10,0.00
2012-10-30,82,59,39,36,29,-100,71,37,12,29.59,29.36,10,4,15,0.03
2012-10-31,91,66,50,47,37,-100,75,41,10,29.47,29.36,8,3,10,0.00
2012-11-1,78,55,47,48,42,38,84,63,26,29.47,29.42,5,1,6,0.00
2012-11-2,78,66,65,52,51,42,64,59,28,29.47,29.39,6,5,8,0.00
2012-11-3,92,70,59,67,57,44,98,67,28,29.53,29.36,21,4,28,0.00
2012-11-4,82,63,52,56,43,37,96,51,24,29.56,29.47,8,3,10,0.00
2012-11-5,79,63,50,67,43,25,98,58,18,29.53,29.42,17,5,19,0.00
2012-11-6,79,56,45,52,35,27,76,49,17,29.62,29.39,7,3,10,0.00
2012-11-7,85,62,46,43,32,15,76,39,9,29.62,29.47,6,2,8,0.00
2012-11-8,82,65,50,54,44,32,68,47,31,29.59,29.42,20,9,26,0.00
2012-11-9,83,70,60,59,52,45,96,57,29,29.50,29.36,29,13,32,0.00
2012-11-10,81,71,61,61,53,46,97,58,32,29.47,29.30,26,14,34,0.00
2012-11-11,78,64,46,65,53,35,79,67,40,29.71,29.21,20,9,28,0.00
2012-11-12,63,46,34,36,17,5,69,36,13,29.95,29.68,12,5,17,0.00
2012-11-13,64,50,44,35,16,8,40,28,13,29.95,29.39,9,2,11,0.00
2012-11-14,72,51,39,35,20,11,50,32,12,29.89,29.39,8,2,9,0.00
2012-11-15,71,50,33,29,21,12,61,36,12,29.80,29.39,8,3,11,0.00
2012-11-16,63,55,47,35,28,20,35,35,35,29.80,29.39,1,1,2,0.00
2012-11-17,73,53,32,28,21,12,66,32,11,29.89,29.71,8,3,11,0.00
2012-11-18,72,54,38,34,27,18,68,38,14,29.77,29.59,14,5,18,0.00
2012-11-19,76,61,47,45,37,21,61,41,22,29.77,29.53,15,6,19,0.00
2012-11-20,90,67,47,49,43,21,81,47,18,29.77,29.53,6,2,8,0.00
2012-11-21,83,64,49,47,33,-100,90,34,16,29.62,29.56,10,4,11,0.00
2012-11-22,78,63,49,48,41,32,81,46,20,29.56,29.44,22,8,29,0.00
2012-11-23,70,58,44,52,27,7,86,38,12,29.86,29.53,20,8,25,0.00
2012-11-24,69,49,31,20,14,7,44,27,12,29.86,29.56,9,4,13,0.00
2012-11-25,76,58,40,50,32,18,65,39,21,29.56,29.27,22,10,27,0.00
2012-11-26,79,61,47,62,52,29,98,74,38,29.68,29.30,16,8,21,0.00
2012-11-27,64,48,35,32,28,23,79,49,28,29.86,29.65,15,6,20,0.00
2012-11-28,68,48,30,38,30,21,95,55,17,29.89,29.71,13,4,17,0.00
2012-11-29,69,54,41,48,34,28,74,49,24,29.71,29.53,16,8,20,0.00
2012-11-30,73,61,53,61,54,47,98,80,49,29.59,29.44,17,8,20,0.00
2012-12-1,83,71,64,65,57,49,98,65,32,29.53,29.36,22,11,28,0.00
2012-12-2,83,72,65,62,56,49,83,61,33,29.56,29.42,21,10,26,0.00
2012-12-3,82,71,64,62,54,46,88,59,31,29.47,29.33,25,12,30,0.00
2012-12-4,75,64,49,62,39,12,93,46,15,29.68,29.42,17,7,22,0.00
2012-12-5,75,53,42,44,35,22,87,52,32,29.71,29.47,8,4,11,0.00
2012-12-6,72,57,44,55,48,41,98,77,34,29.50,29.24,16,7,20,0.00
2012-12-7,77,63,56,59,54,47,98,75,35,29.33,29.18,15,6,17,0.00
2012-12-8,75,61,53,63,49,42,96,66,35,29.36,29.18,10,4,12,0.00
2012-12-9,75,63,42,66,50,13,97,66,30,29.44,29.18,20,10,25,0.00
2012-12-10,47,37,29,19,11,5,59,35,19,29.62,29.44,21,10,26,0.00
2012-12-11,61,36,21,17,8,-4,65,35,14,29.68,29.53,7,2,9,0.00
2012-12-12,61,40,21,18,10,5,57,32,14,29.80,29.62,11,4,14,0.00
2012-12-13,67,48,28,18,13,8,45,26,12,29.77,29.59,15,6,18,0.00
2012-12-14,61,55,46,59,36,18,97,53,31,29.65,29.27,26,10,30,0.00
2012-12-15,74,62,54,60,42,20,98,56,13,29.36,29.24,17,4,20,0.00
2012-12-16,78,59,50,44,36,18,73,48,13,29.27,29.09,9,3,11,0.00
2012-12-17,69,52,44,43,32,23,81,49,20,29.36,29.18,10,4,12,0.00
2012-12-18,81,58,39,46,29,15,73,41,9,29.30,29.15,13,6,17,0.00
2012-12-19,78,69,59,62,54,10,93,61,13,29.27,28.97,27,14,33,0.00
2012-12-20,59,45,36,21,10,-2,41,25,15,29.86,29.21,26,12,33,0.00
2012-12-21,70,47,28,16,10,0,43,24,12,29.92,29.71,7,3,10,0.00
2012-12-22,66,51,33,43,24,9,58,36,21,29.77,29.44,21,7,27,0.00
2012-12-23,68,58,42,54,37,16,86,49,20,29.68,29.24,14,6,17,0.00
2012-12-24,64,45,32,25,22,14,65,42,16,29.47,29.18,10,4,13,0.00
2012-12-25,48,39,29,47,34,18,98,81,48,29.53,29.00,23,13,30,0.00
2012-12-26,38,28,22,19,16,11,79,61,42,29.71,29.53,24,8,30,0.00
2012-12-27,51,35,21,39,27,16,98,75,40,29.56,29.30,10,4,13,0.00
2012-12-28,46,38,30,40,32,17,98,82,55,29.65,29.27,19,8,25,0.00
2012-12-29,48,34,25,18,16,12,73,48,27,29.89,29.62,12,4,15,0.00
2012-12-30,49,39,23,23,17,10,73,43,21,29.92,29.62,13,6,13,0.00
2012-12-31,48,44,39,47,40,21,98,87,43,29.68,29.36,13,4,14,0.00
2013-1-1,46,42,37,45,37,28,98,83,68,29.71,29.47,14,7,17,0.00